createdAt,value
2019-02-07T00:00:45.337Z,29.40
2019-02-07T00:03:14.773Z,29.30
2019-02-07T00:05:45.053Z,31.33
2019-02-07T00:08:13.994Z,31.73
2019-02-07T00:10:43.509Z,34.13
2019-02-07T00:13:12.460Z,34.10
2019-02-07T00:15:41.509Z,33.60
2019-02-07T00:18:10.834Z,35.70
2019-02-07T00:20:39.796Z,33.13
2019-02-07T00:23:11.891Z,35.17
2019-02-07T00:25:42.626Z,34.03
2019-02-07T00:28:11.705Z,34.00
2019-02-07T00:30:43.075Z,35.23
2019-02-07T00:33:12.150Z,34.70
2019-02-07T00:35:41.879Z,34.63
2019-02-07T00:38:11.914Z,33.90
2019-02-07T00:40:40.882Z,34.27
2019-02-07T00:43:09.940Z,33.80
2019-02-07T00:45:39.045Z,33.73
2019-02-07T00:48:08.141Z,32.00
2019-02-07T00:50:37.632Z,31.77
2019-02-07T00:53:07.333Z,30.13
2019-02-07T00:55:38.142Z,30.90
2019-02-07T00:58:08.916Z,29.93
2019-02-07T01:00:39.166Z,30.07
2019-02-07T01:03:08.780Z,29.23
2019-02-07T01:05:37.835Z,28.47
2019-02-07T01:08:08.636Z,29.37
2019-02-07T01:10:37.612Z,28.90
2019-02-07T01:13:11.378Z,27.60
2019-02-07T01:15:43.699Z,27.13
2019-02-07T01:18:13.158Z,26.90
2019-02-07T01:20:42.302Z,25.97
2019-02-07T01:23:11.566Z,25.77
2019-02-07T01:25:41.750Z,26.43
2019-02-07T01:28:10.703Z,24.20
2019-02-07T01:30:40.328Z,25.10
2019-02-07T01:33:09.279Z,25.60
2019-02-07T01:35:39.483Z,24.80
2019-02-07T01:38:08.477Z,24.97
2019-02-07T01:40:37.710Z,24.53
2019-02-07T01:43:06.700Z,25.80
2019-02-07T01:45:35.915Z,24.00
2019-02-07T01:48:05.359Z,23.53
2019-02-07T01:50:34.630Z,24.43
2019-02-07T01:53:03.592Z,24.33
2019-02-07T01:55:32.874Z,23.77
2019-02-07T01:58:02.186Z,24.70
2019-02-07T02:00:31.636Z,25.27
2019-02-07T02:03:00.630Z,24.80
2019-02-07T02:05:39.287Z,25.43
2019-02-07T02:08:08.807Z,25.07
2019-02-07T02:10:37.695Z,25.70
2019-02-07T02:13:10.447Z,25.27
2019-02-07T02:15:39.571Z,26.73
2019-02-07T02:18:09.086Z,24.73
2019-02-07T02:20:38.184Z,26.07
2019-02-07T02:23:07.248Z,23.77
2019-02-07T02:25:36.586Z,24.20
2019-02-07T02:28:05.937Z,24.27
2019-02-07T02:30:36.106Z,25.07
2019-02-07T02:33:05.338Z,24.30
2019-02-07T02:35:34.554Z,23.37
2019-02-07T02:38:04.941Z,24.30
2019-02-07T02:40:34.299Z,24.43
2019-02-07T02:43:04.003Z,24.27
2019-02-07T02:45:37.650Z,24.43
2019-02-07T02:48:06.460Z,23.93
2019-02-07T02:50:35.433Z,22.70
2019-02-07T02:53:04.435Z,22.87
2019-02-07T02:55:42.115Z,22.97
2019-02-07T02:58:11.458Z,23.10
2019-02-07T03:01:28.507Z,22.73
2019-02-07T03:04:25.732Z,22.73
2019-02-07T03:07:12.788Z,22.03
2019-02-07T03:10:03.837Z,21.47
2019-02-07T03:12:57.626Z,20.63
2019-02-07T03:15:52.865Z,20.83
2019-02-07T03:18:48.063Z,20.37
2019-02-07T03:25:13.437Z,18.40
2019-02-07T03:27:55.205Z,19.53
2019-02-07T03:30:49.489Z,18.80
2019-02-07T03:33:52.737Z,20.57
2019-02-07T03:36:37.178Z,20.57
2019-02-07T03:39:45.347Z,20.57
2019-02-07T03:42:36.644Z,18.83
2019-02-07T03:45:27.955Z,19.43
2019-02-07T03:48:12.155Z,19.03
2019-02-07T03:51:06.250Z,19.67
2019-02-07T03:53:54.502Z,18.33
2019-02-07T03:57:03.038Z,19.03
2019-02-07T03:59:51.351Z,17.80
2019-02-07T04:02:40.621Z,17.93
2019-02-07T04:05:30.362Z,16.00
2019-02-07T04:08:13.746Z,16.83
2019-02-07T04:11:09.073Z,17.87
2019-02-07T04:13:59.791Z,16.53
2019-02-07T04:19:52.102Z,16.90
2019-02-07T04:22:42.039Z,16.27
2019-02-07T04:25:32.961Z,15.90
2019-02-07T04:28:40.394Z,15.17
2019-02-07T04:31:30.389Z,15.47
2019-02-07T04:34:21.133Z,16.33
2019-02-07T04:37:09.251Z,16.70
2019-02-07T04:40:08.001Z,16.43
2019-02-07T04:42:59.085Z,16.70
2019-02-07T04:45:50.367Z,16.27
2019-02-07T04:48:59.469Z,15.33
2019-02-07T04:51:42.411Z,15.70
2019-02-07T04:54:29.553Z,16.60
2019-02-07T04:57:18.023Z,16.50
2019-02-07T05:00:15.454Z,15.90
2019-02-07T05:06:42.499Z,16.43
2019-02-07T05:09:49.027Z,17.27
2019-02-07T05:12:37.262Z,16.67
2019-02-07T05:15:23.861Z,16.67
2019-02-07T05:18:17.917Z,15.97
2019-02-07T05:21:18.485Z,16.80
2019-02-07T05:24:05.177Z,16.40
2019-02-07T05:27:35.764Z,16.20
2019-02-07T05:30:17.718Z,15.10
2019-02-07T05:33:05.529Z,14.67
2019-02-07T05:35:52.750Z,12.47
2019-02-07T05:38:32.102Z,13.10
2019-02-07T05:41:21.783Z,12.27
2019-02-07T05:44:02.972Z,11.63
2019-02-07T05:46:51.269Z,11.23
2019-02-07T05:49:35.131Z,9.07
2019-02-07T05:52:14.251Z,10.50
2019-02-07T05:54:58.921Z,9.87
2019-02-07T05:57:56.304Z,9.90
2019-02-07T06:00:54.105Z,7.80
2019-02-07T06:03:37.949Z,6.70
2019-02-07T06:06:21.769Z,5.30
2019-02-07T06:09:01.014Z,3.40
2019-02-07T06:14:49.232Z,2.60
2019-02-07T06:17:52.531Z,3.43
2019-02-07T06:20:39.122Z,3.17
2019-02-07T06:23:34.857Z,2.77
2019-02-07T06:26:19.003Z,3.03
2019-02-07T06:29:06.011Z,2.93
2019-02-07T06:31:49.620Z,4.03
2019-02-07T06:34:56.366Z,3.87
2019-02-07T06:37:51.089Z,3.63
2019-02-07T06:40:37.919Z,3.77
2019-02-07T06:43:23.344Z,4.23
2019-02-07T06:46:09.326Z,2.87
2019-02-07T06:48:58.197Z,2.93
2019-02-07T06:51:39.421Z,3.03
2019-02-07T06:54:29.754Z,3.77
2019-02-07T06:57:12.332Z,3.83
2019-02-07T07:00:01.487Z,3.57
2019-02-07T07:02:53.673Z,3.60
2019-02-07T07:05:54.436Z,4.17
2019-02-07T07:08:45.317Z,4.10
2019-02-07T07:11:32.498Z,4.33
2019-02-07T07:14:23.886Z,4.20
2019-02-07T07:17:12.270Z,3.90
2019-02-07T07:20:06.199Z,4.33
2019-02-07T07:22:53.082Z,4.23
2019-02-07T07:25:35.479Z,4.23
2019-02-07T07:28:30.022Z,4.50
2019-02-07T07:31:13.299Z,3.77
2019-02-07T07:33:54.064Z,3.77
2019-02-07T07:36:46.140Z,3.60
2019-02-07T07:39:33.715Z,4.47
2019-02-07T07:42:27.641Z,4.80
2019-02-07T07:45:05.356Z,4.10
2019-02-07T07:47:59.762Z,3.93
2019-02-07T07:50:39.665Z,4.40
2019-02-07T07:53:42.883Z,4.63
2019-02-07T07:56:31.743Z,4.30
2019-02-07T07:59:26.397Z,4.50
2019-02-07T08:02:24.143Z,3.27
2019-02-07T08:05:06.937Z,3.27
2019-02-07T08:07:58.450Z,5.53
2019-02-07T08:10:47.295Z,4.87
2019-02-07T08:13:44.283Z,4.40
2019-02-07T08:17:13.442Z,4.23
2019-02-07T08:20:02.400Z,3.80
2019-02-07T08:22:53.769Z,3.50
2019-02-07T08:25:41.475Z,4.40
2019-02-07T08:28:26.783Z,5.63
2019-02-07T08:31:36.764Z,4.50
2019-02-07T08:34:18.644Z,3.33
2019-02-07T08:37:04.345Z,4.10
2019-02-07T08:39:51.899Z,3.27
2019-02-07T08:42:49.264Z,2.70
2019-02-07T08:45:36.666Z,2.60
2019-02-07T08:48:26.147Z,3.07
2019-02-07T08:51:41.951Z,2.83
2019-02-07T08:54:29.108Z,2.63
2019-02-07T08:57:17.207Z,4.03
2019-02-07T09:00:15.019Z,2.30
2019-02-07T09:03:15.956Z,2.23
2019-02-07T09:05:54.331Z,3.07
2019-02-07T09:08:54.831Z,2.57
2019-02-07T09:11:51.747Z,2.13
2019-02-07T09:14:35.621Z,2.70
2019-02-07T09:17:41.896Z,2.47
2019-02-07T09:20:32.936Z,3.57
2019-02-07T09:23:36.353Z,4.03
2019-02-07T09:26:26.109Z,3.20
2019-02-07T09:29:24.474Z,2.97
2019-02-07T09:32:06.035Z,3.00
2019-02-07T09:34:46.955Z,2.20
2019-02-07T09:37:44.567Z,2.60
2019-02-07T09:40:51.268Z,3.00
2019-02-07T09:43:46.014Z,3.10
2019-02-07T09:46:34.789Z,2.20
2019-02-07T09:49:26.626Z,2.87
2019-02-07T09:52:24.414Z,3.50
2019-02-07T09:55:15.920Z,3.90
2019-02-07T09:57:59.818Z,3.50
2019-02-07T10:00:46.940Z,3.53
2019-02-07T10:03:24.749Z,3.77
2019-02-07T10:06:09.509Z,4.73
2019-02-07T10:09:01.305Z,2.53
2019-02-07T10:11:43.043Z,4.27
2019-02-07T10:14:37.381Z,3.07
2019-02-07T10:17:19.135Z,4.37
2019-02-07T10:20:09.021Z,3.10
2019-02-07T10:23:05.885Z,3.43
2019-02-07T10:26:03.209Z,3.00
2019-02-07T10:28:44.565Z,3.03
2019-02-07T10:31:38.907Z,3.43
2019-02-07T10:34:38.309Z,3.07
2019-02-07T10:37:20.304Z,2.50
2019-02-07T10:40:03.962Z,2.80
2019-02-07T10:42:48.609Z,3.30
2019-02-07T10:45:43.826Z,2.97
2019-02-07T10:48:27.568Z,3.93
2019-02-07T10:51:22.548Z,3.00
2019-02-07T10:54:26.093Z,2.93
2019-02-07T10:57:26.613Z,3.13
2019-02-07T11:00:16.430Z,3.90
2019-02-07T11:03:05.050Z,3.67
2019-02-07T11:05:43.366Z,3.37
2019-02-07T11:08:22.173Z,4.10
2019-02-07T11:11:04.761Z,4.00
2019-02-07T11:13:51.690Z,2.73
2019-02-07T11:16:37.056Z,3.43
2019-02-07T11:19:43.621Z,3.17
2019-02-07T11:22:28.448Z,3.10
2019-02-07T11:25:12.009Z,2.33
2019-02-07T11:28:10.252Z,3.50
2019-02-07T11:30:54.113Z,2.80
2019-02-07T11:33:55.874Z,2.13
2019-02-07T11:39:32.101Z,2.53
2019-02-07T11:42:18.149Z,3.30
2019-02-07T11:45:04.828Z,3.53
2019-02-07T11:47:52.971Z,2.40
2019-02-07T11:50:37.889Z,2.43
2019-02-07T11:53:26.259Z,2.77
2019-02-07T11:56:13.209Z,3.07
2019-02-07T11:59:00.036Z,3.70
2019-02-07T12:01:50.114Z,2.87
2019-02-07T12:04:25.899Z,3.17
2019-02-07T12:07:07.130Z,3.00
2019-02-07T12:10:01.704Z,3.27
2019-02-07T12:12:56.133Z,2.83
2019-02-07T12:15:48.768Z,2.80
2019-02-07T12:18:41.901Z,3.53
2019-02-07T12:21:38.851Z,3.80
2019-02-07T12:24:17.951Z,2.87
2019-02-07T12:27:01.912Z,2.60
2019-02-07T12:29:41.787Z,3.73
2019-02-07T12:32:28.800Z,2.83
2019-02-07T12:35:15.856Z,2.37
2019-02-07T12:38:07.611Z,2.43
2019-02-07T12:40:55.671Z,2.97
2019-02-07T12:43:55.647Z,2.23
2019-02-07T12:46:42.554Z,2.07
2019-02-07T12:49:43.032Z,3.07
2019-02-07T12:52:40.240Z,2.73
2019-02-07T12:55:29.005Z,1.97
2019-02-07T12:58:18.721Z,3.10
2019-02-07T13:01:16.025Z,2.63
2019-02-07T13:04:01.969Z,2.23
2019-02-07T13:06:41.163Z,2.20
2019-02-07T13:09:33.040Z,1.90
2019-02-07T13:12:21.587Z,2.10
2019-02-07T13:15:10.208Z,2.40
2019-02-07T13:18:13.806Z,2.77
2019-02-07T13:21:11.377Z,2.07
2019-02-07T13:24:08.697Z,2.77
2019-02-07T13:26:55.347Z,3.50
2019-02-07T13:29:45.895Z,1.90
2019-02-07T13:32:40.166Z,2.30
2019-02-07T13:35:34.708Z,3.40
2019-02-07T13:38:28.863Z,1.80
2019-02-07T13:41:19.347Z,2.03
2019-02-07T13:44:10.472Z,2.80
2019-02-07T13:46:59.338Z,2.20
2019-02-07T13:49:52.239Z,2.37
2019-02-07T13:52:38.844Z,2.57
2019-02-07T13:55:24.191Z,2.73
2019-02-07T13:58:12.258Z,1.97
2019-02-07T14:00:59.708Z,2.80
2019-02-07T14:04:01.208Z,3.77
2019-02-07T14:06:48.151Z,2.23
2019-02-07T14:09:25.587Z,1.80
2019-02-07T14:12:11.273Z,2.93
2019-02-07T14:15:08.977Z,2.77
2019-02-07T14:17:59.356Z,2.43
2019-02-07T14:20:51.025Z,2.87
2019-02-07T14:23:59.056Z,3.33
2019-02-07T14:26:36.916Z,2.80
2019-02-07T14:29:24.588Z,2.70
2019-02-07T14:32:23.105Z,2.53
2019-02-07T14:35:14.376Z,3.00
2019-02-07T14:38:11.881Z,2.57
2019-02-07T14:41:02.964Z,1.90
2019-02-07T14:43:43.456Z,2.50
2019-02-07T14:46:27.556Z,1.70
2019-02-07T14:48:56.872Z,2.47
2019-02-07T14:51:26.130Z,1.93
2019-02-07T14:53:55.577Z,2.33
2019-02-07T14:56:26.748Z,1.97
2019-02-07T14:58:56.368Z,1.93
2019-02-07T15:01:26.213Z,2.27
2019-02-07T15:03:55.303Z,2.27
2019-02-07T15:06:27.798Z,2.37
2019-02-07T15:08:57.540Z,2.10
2019-02-07T15:11:27.224Z,2.20
2019-02-07T15:13:58.944Z,2.53
2019-02-07T15:16:31.865Z,2.27
2019-02-07T15:19:01.213Z,1.97
2019-02-07T15:21:30.367Z,2.07
2019-02-07T15:23:59.526Z,2.30
2019-02-07T15:26:28.887Z,1.50
2019-02-07T15:28:58.114Z,1.93
2019-02-07T15:31:29.605Z,2.50
2019-02-07T15:33:58.662Z,2.17
2019-02-07T15:36:27.881Z,2.50
2019-02-07T15:38:57.372Z,2.10
2019-02-07T15:41:27.005Z,2.33
2019-02-07T15:43:56.132Z,2.90
2019-02-07T15:46:28.925Z,2.33
2019-02-07T15:48:58.133Z,1.67
2019-02-07T15:51:29.708Z,2.50
2019-02-07T15:53:58.901Z,2.30
2019-02-07T15:56:28.086Z,2.47
2019-02-07T15:59:16.992Z,2.37
2019-02-07T16:01:57.790Z,2.00
2019-02-07T16:04:30.557Z,2.37
2019-02-07T16:06:59.873Z,2.43
2019-02-07T16:09:29.560Z,2.33
2019-02-07T16:12:00.908Z,1.60
2019-02-07T16:14:31.706Z,2.13
2019-02-07T16:17:01.352Z,3.00
2019-02-07T16:19:39.791Z,2.00
2019-02-07T16:22:08.876Z,2.20
2019-02-07T16:24:38.008Z,1.63
2019-02-07T16:27:07.859Z,2.40
2019-02-07T16:29:38.022Z,2.20
2019-02-07T16:32:07.428Z,2.50
2019-02-07T16:34:36.846Z,2.40
2019-02-07T16:37:05.940Z,2.07
2019-02-07T16:39:35.238Z,2.30
2019-02-07T16:42:07.962Z,2.50
2019-02-07T16:44:40.532Z,1.70
2019-02-07T16:47:10.839Z,2.03
2019-02-07T16:49:40.111Z,3.00
2019-02-07T16:52:09.809Z,2.43
2019-02-07T16:54:39.014Z,2.40
2019-02-07T16:57:08.402Z,2.10
2019-02-07T16:59:37.559Z,2.93
2019-02-07T17:02:06.604Z,1.80
2019-02-07T17:04:35.656Z,1.90
2019-02-07T17:07:05.052Z,2.93
2019-02-07T17:09:40.533Z,2.97
2019-02-07T17:12:10.247Z,2.87
2019-02-07T17:14:45.530Z,3.40
2019-02-07T17:17:14.742Z,3.77
2019-02-07T17:19:44.333Z,2.97
2019-02-07T17:22:13.609Z,3.53
2019-02-07T17:24:42.707Z,3.27
2019-02-07T17:27:11.717Z,2.43
2019-02-07T17:29:40.951Z,2.40
2019-02-07T17:32:10.382Z,2.20
2019-02-07T17:34:39.533Z,2.13
2019-02-07T17:37:08.654Z,2.70
2019-02-07T17:39:37.779Z,2.30
2019-02-07T17:42:06.896Z,3.63
2019-02-07T17:44:36.101Z,2.50
2019-02-07T17:47:06.499Z,2.80
2019-02-07T17:49:35.629Z,3.07
2019-02-07T17:52:07.739Z,2.70
2019-02-07T17:54:36.824Z,2.47
2019-02-07T17:57:05.869Z,2.77
2019-02-07T17:59:35.147Z,2.33
2019-02-07T18:02:07.845Z,2.87
2019-02-07T18:04:36.958Z,1.70
2019-02-07T18:07:06.243Z,3.13
2019-02-07T18:09:36.193Z,3.07
2019-02-07T18:12:06.054Z,2.90
2019-02-07T18:14:35.341Z,3.27
2019-02-07T18:17:04.393Z,2.57
2019-02-07T18:19:33.459Z,3.00
2019-02-07T18:22:02.499Z,3.00
2019-02-07T18:24:31.524Z,3.27
2019-02-07T18:27:01.647Z,2.33
2019-02-07T18:29:32.935Z,2.33
2019-02-07T18:32:06.758Z,2.80
2019-02-07T18:34:35.757Z,2.73
2019-02-07T18:37:04.901Z,2.70
2019-02-07T18:39:34.931Z,2.93
2019-02-07T18:42:04.096Z,3.00
2019-02-07T18:44:33.183Z,2.03
2019-02-07T18:47:02.748Z,2.30
2019-02-07T18:49:32.086Z,3.10
2019-02-07T18:52:01.197Z,2.90
2019-02-07T18:54:30.316Z,2.50
2019-02-07T18:57:00.682Z,1.57
2019-02-07T18:59:35.821Z,2.10
2019-02-07T19:02:05.467Z,2.43
2019-02-07T19:04:35.440Z,2.27
2019-02-07T19:07:04.550Z,3.13
2019-02-07T19:09:34.548Z,2.27
2019-02-07T19:12:03.872Z,2.20
2019-02-07T19:14:34.116Z,1.70
2019-02-07T19:17:03.566Z,2.63
2019-02-07T19:19:32.699Z,1.90
2019-02-07T19:22:05.529Z,2.40
2019-02-07T19:24:34.748Z,2.57
2019-02-07T19:27:04.139Z,1.83
2019-02-07T19:29:33.253Z,2.40
2019-02-07T19:32:03.171Z,2.47
2019-02-07T19:37:06.887Z,2.40
2019-02-07T19:39:35.981Z,3.00
2019-02-07T19:42:08.452Z,2.97
2019-02-07T19:44:38.025Z,3.57
2019-02-07T19:47:07.117Z,2.73
2019-02-07T19:49:36.455Z,3.30
2019-02-07T19:52:08.215Z,3.37
2019-02-07T19:54:37.003Z,2.17
2019-02-07T19:57:06.126Z,3.47
2019-02-07T19:59:36.226Z,3.40
2019-02-07T20:02:05.572Z,3.90
2019-02-07T20:04:35.660Z,3.27
2019-02-07T20:07:05.020Z,3.30
2019-02-07T20:09:38.077Z,3.93
2019-02-07T20:12:07.393Z,3.13
2019-02-07T20:17:11.970Z,3.67
2019-02-07T20:19:41.086Z,4.50
2019-02-07T20:22:19.819Z,3.63
2019-02-07T20:24:46.898Z,3.70
2019-02-07T20:27:16.446Z,4.53
2019-02-07T20:29:49.498Z,4.37
2019-02-07T20:32:20.223Z,2.43
2019-02-07T20:34:49.374Z,3.50
2019-02-07T20:37:19.740Z,3.73
2019-02-07T20:39:48.990Z,3.93
2019-02-07T20:42:22.060Z,3.33
2019-02-07T20:44:51.187Z,3.67
2019-02-07T20:47:20.353Z,2.80
2019-02-07T20:49:50.072Z,2.73
2019-02-07T20:52:19.390Z,3.20
2019-02-07T20:54:48.843Z,2.97
2019-02-07T20:57:17.915Z,2.20
2019-02-07T20:59:47.348Z,2.77
2019-02-07T21:02:16.621Z,4.33
2019-02-07T21:04:45.739Z,3.33
2019-02-07T21:07:14.827Z,3.30
2019-02-07T21:09:44.292Z,3.40
2019-02-07T21:12:13.344Z,3.73
2019-02-07T21:14:42.340Z,3.30
2019-02-07T21:17:11.390Z,3.53
2019-02-07T21:19:41.178Z,3.23
2019-02-07T21:22:10.634Z,3.10
2019-02-07T21:24:43.628Z,3.40
2019-02-07T21:27:15.693Z,2.90
2019-02-07T21:29:45.054Z,4.07
2019-02-07T21:32:14.377Z,3.60
2019-02-07T21:34:43.365Z,3.50
2019-02-07T21:37:12.563Z,4.63
2019-02-07T21:39:42.412Z,3.93
2019-02-07T21:42:11.568Z,4.63
2019-02-07T21:44:42.068Z,4.23
2019-02-07T21:47:14.721Z,4.87
2019-02-07T21:49:46.784Z,3.90
2019-02-07T21:52:16.606Z,4.00
2019-02-07T21:54:48.707Z,4.00
2019-02-07T21:57:18.186Z,4.40
2019-02-07T21:59:47.485Z,3.80
2019-02-07T22:02:16.572Z,4.73
2019-02-07T22:04:46.496Z,3.80
2019-02-07T22:07:15.604Z,4.40
2019-02-07T22:09:48.531Z,4.23
2019-02-07T22:12:21.340Z,3.93
2019-02-07T22:17:28.168Z,3.87
2019-02-07T22:19:57.560Z,4.40
2019-02-07T22:22:27.560Z,3.80
2019-02-07T22:24:56.993Z,3.70
2019-02-07T22:27:26.128Z,4.63
2019-02-07T22:29:55.146Z,3.90
2019-02-07T22:32:24.390Z,4.07
2019-02-07T22:34:53.339Z,4.27
2019-02-07T22:37:23.157Z,3.80
2019-02-07T22:39:53.813Z,4.37
2019-02-07T22:42:22.949Z,4.00
2019-02-07T22:44:52.575Z,4.77
2019-02-07T22:47:22.058Z,4.60
2019-02-07T22:49:51.403Z,3.97
2019-02-07T22:52:23.982Z,3.97
2019-02-07T22:54:53.284Z,3.97
2019-02-07T22:57:22.489Z,4.50
2019-02-07T22:59:52.656Z,4.07
2019-02-07T23:08:54.136Z,3.97
2019-02-07T23:11:23.503Z,4.57
2019-02-07T23:13:52.838Z,4.23
2019-02-07T23:16:21.821Z,4.37
2019-02-07T23:18:51.743Z,3.80
2019-02-07T23:21:21.515Z,4.23
2019-02-07T23:23:50.603Z,4.03
2019-02-07T23:26:19.777Z,3.60
2019-02-07T23:29:22.514Z,5.10
2019-02-07T23:31:51.511Z,3.80
2019-02-07T23:34:20.442Z,4.67
2019-02-07T23:36:50.073Z,3.87
2019-02-07T23:39:19.079Z,4.57
2019-02-07T23:41:48.772Z,4.20
2019-02-07T23:44:18.577Z,4.10
2019-02-07T23:46:48.381Z,4.60
2019-02-07T23:49:17.623Z,5.17
2019-02-07T23:51:46.785Z,4.30
2019-02-07T23:54:16.002Z,3.70
2019-02-07T23:56:44.912Z,3.60
2019-02-07T23:59:13.797Z,3.20
